sensor_id;sensor_type;location;lat;lon;timestamp;pressure;altitude;pressure_sealevel;temperature;humidity
54306;BME280;66145;45.188;5.712;2023-07-13T00:00:23;99195.16;;;24.66;65.48
54306;BME280;66145;45.188;5.712;2023-07-13T00:02:48;99194.34;;;24.66;65.54
54306;BME280;66145;45.188;5.712;2023-07-13T00:05:14;99186.44;;;24.64;65.32
54306;BME280;66145;45.188;5.712;2023-07-13T00:07:39;99171.41;;;24.49;65.85
54306;BME280;66145;45.188;5.712;2023-07-13T00:10:05;99176.97;;;24.65;65.60
54306;BME280;66145;45.188;5.712;2023-07-13T00:12:34;99167.31;;;24.59;65.79
54306;BME280;66145;45.188;5.712;2023-07-13T00:15:01;99176.16;;;24.65;65.51
54306;BME280;66145;45.188;5.712;2023-07-13T00:17:28;99190.44;;;24.67;65.67
54306;BME280;66145;45.188;5.712;2023-07-13T00:19:55;99187.31;;;24.68;65.48
54306;BME280;66145;45.188;5.712;2023-07-13T00:22:22;99190.44;;;24.67;65.45
54306;BME280;66145;45.188;5.712;2023-07-13T00:24:51;99191.59;;;24.66;65.55
54306;BME280;66145;45.188;5.712;2023-07-13T00:27:17;99186.44;;;24.64;65.91
54306;BME280;66145;45.188;5.712;2023-07-13T00:29:43;99183.66;;;24.64;65.51
54306;BME280;66145;45.188;5.712;2023-07-13T00:32:08;99184.09;;;24.66;65.40
54306;BME280;66145;45.188;5.712;2023-07-13T00:34:34;99175.81;;;24.66;65.68
54306;BME280;66145;45.188;5.712;2023-07-13T00:37:00;99168.75;;;24.53;65.54
54306;BME280;66145;45.188;5.712;2023-07-13T00:39:25;99190.78;;;24.65;65.54
54306;BME280;66145;45.188;5.712;2023-07-13T00:41:50;99198.63;;;24.63;65.39
54306;BME280;66145;45.188;5.712;2023-07-13T00:44:18;99203.00;;;24.64;65.50
54306;BME280;66145;45.188;5.712;2023-07-13T00:46:43;99205.78;;;24.64;65.60
54306;BME280;66145;45.188;5.712;2023-07-13T00:49:13;99203.28;;;24.59;65.46
54306;BME280;66145;45.188;5.712;2023-07-13T00:51:44;99198.09;;;24.57;65.54
54306;BME280;66145;45.188;5.712;2023-07-13T00:54:18;99203.56;;;24.54;65.64
54306;BME280;66145;45.188;5.712;2023-07-13T00:56:47;99205.94;;;24.55;65.52
54306;BME280;66145;45.188;5.712;2023-07-13T00:59:15;99213.16;;;24.60;65.64
54306;BME280;66145;45.188;5.712;2023-07-13T01:01:42;99225.94;;;24.65;65.64
54306;BME280;66145;45.188;5.712;2023-07-13T01:04:08;99222.75;;;24.63;65.69
54306;BME280;66145;45.188;5.712;2023-07-13T01:06:35;99222.28;;;24.60;65.60
54306;BME280;66145;45.188;5.712;2023-07-13T01:09:01;99208.72;;;24.55;65.64
54306;BME280;66145;45.188;5.712;2023-07-13T01:11:27;99225.84;;;24.61;65.65
54306;BME280;66145;45.188;5.712;2023-07-13T01:13:53;99223.97;;;24.65;65.54
54306;BME280;66145;45.188;5.712;2023-07-13T01:16:27;99217.22;;;24.63;65.53
54306;BME280;66145;45.188;5.712;2023-07-13T01:18:54;99204.78;;;24.56;65.38
54306;BME280;66145;45.188;5.712;2023-07-13T01:21:23;99198.34;;;24.52;65.32
54306;BME280;66145;45.188;5.712;2023-07-13T01:23:48;99192.75;;;24.49;65.65
54306;BME280;66145;45.188;5.712;2023-07-13T01:26:13;99205.69;;;24.60;65.31
54306;BME280;66145;45.188;5.712;2023-07-13T01:28:39;99207.19;;;24.58;65.60
54306;BME280;66145;45.188;5.712;2023-07-13T01:31:04;99197.66;;;24.55;65.45
54306;BME280;66145;45.188;5.712;2023-07-13T01:33:30;99211.22;;;24.60;65.71
54306;BME280;66145;45.188;5.712;2023-07-13T01:35:55;99209.25;;;24.61;65.38
54306;BME280;66145;45.188;5.712;2023-07-13T01:38:23;99219.16;;;24.62;65.49
54306;BME280;66145;45.188;5.712;2023-07-13T01:40:49;99218.69;;;24.60;65.60
54306;BME280;66145;45.188;5.712;2023-07-13T01:43:14;99219.84;;;24.59;65.54
54306;BME280;66145;45.188;5.712;2023-07-13T01:45:39;99223.44;;;24.59;65.52
54306;BME280;66145;45.188;5.712;2023-07-13T01:48:05;99221.84;;;24.58;65.34
54306;BME280;66145;45.188;5.712;2023-07-13T01:50:32;99219.41;;;24.57;65.57
54306;BME280;66145;45.188;5.712;2023-07-13T01:52:58;99219.84;;;24.59;65.23
54306;BME280;66145;45.188;5.712;2023-07-13T01:55:23;99226.53;;;24.58;65.40
54306;BME280;66145;45.188;5.712;2023-07-13T01:57:48;99205.75;;;24.48;65.67
54306;BME280;66145;45.188;5.712;2023-07-13T02:00:14;99223.00;;;24.57;65.45
54306;BME280;66145;45.188;5.712;2023-07-13T02:02:40;99210.56;;;24.51;65.52
54306;BME280;66145;45.188;5.712;2023-07-13T02:05:06;99211.03;;;24.53;65.42
54306;BME280;66145;45.188;5.712;2023-07-13T02:07:31;99230.91;;;24.59;65.42
54306;BME280;66145;45.188;5.712;2023-07-13T02:09:57;99231.75;;;24.59;65.74
54306;BME280;66145;45.188;5.712;2023-07-13T02:12:22;99228.53;;;24.57;65.34
54306;BME280;66145;45.188;5.712;2023-07-13T02:14:48;99223.44;;;24.59;65.45
54306;BME280;66145;45.188;5.712;2023-07-13T02:17:13;99214.25;;;24.55;65.51
54306;BME280;66145;45.188;5.712;2023-07-13T02:19:39;99209.78;;;24.51;65.43
54306;BME280;66145;45.188;5.712;2023-07-13T02:22:05;99226.22;;;24.59;65.64
54306;BME280;66145;45.188;5.712;2023-07-13T02:24:31;99227.00;;;24.60;65.62
54306;BME280;66145;45.188;5.712;2023-07-13T02:26:57;99234.84;;;24.58;65.45
54306;BME280;66145;45.188;5.712;2023-07-13T02:29:22;99214.78;;;24.45;65.50
54306;BME280;66145;45.188;5.712;2023-07-13T02:31:48;99219.31;;;24.53;65.66
54306;BME280;66145;45.188;5.712;2023-07-13T02:34:13;99212.09;;;24.49;65.46
54306;BME280;66145;45.188;5.712;2023-07-13T02:36:38;99231.28;;;24.57;65.66
54306;BME280;66145;45.188;5.712;2023-07-13T02:39:05;99223.59;;;24.51;65.48
54306;BME280;66145;45.188;5.712;2023-07-13T02:41:30;99227.63;;;24.53;65.64
54306;BME280;66145;45.188;5.712;2023-07-13T02:43:58;99228.31;;;24.50;65.55
54306;BME280;66145;45.188;5.712;2023-07-13T02:46:28;99226.47;;;24.54;65.35
54306;BME280;66145;45.188;5.712;2023-07-13T02:48:54;99237.97;;;24.56;65.33
54306;BME280;66145;45.188;5.712;2023-07-13T02:51:19;99236.81;;;24.57;65.35
54306;BME280;66145;45.188;5.712;2023-07-13T02:53:44;99228.84;;;24.56;65.38
54306;BME280;66145;45.188;5.712;2023-07-13T02:56:10;99236.34;;;24.55;65.69
54306;BME280;66145;45.188;5.712;2023-07-13T02:58:35;99222.34;;;24.48;65.62
54306;BME280;66145;45.188;5.712;2023-07-13T03:01:06;99232.00;;;24.54;65.37
54306;BME280;66145;45.188;5.712;2023-07-13T03:03:32;99220.72;;;24.47;65.55
54306;BME280;66145;45.188;5.712;2023-07-13T03:05:59;99219.47;;;24.44;65.10
54306;BME280;66145;45.188;5.712;2023-07-13T03:08:26;99226.63;;;24.45;65.43
54306;BME280;66145;45.188;5.712;2023-07-13T03:11:01;99236.16;;;24.48;65.53
54306;BME280;66145;45.188;5.712;2023-07-13T03:13:27;99208.50;;;24.32;65.44
54306;BME280;66145;45.188;5.712;2023-07-13T03:15:53;99243.06;;;24.54;65.72
54306;BME280;66145;45.188;5.712;2023-07-13T03:18:18;99233.66;;;24.43;65.35
54306;BME280;66145;45.188;5.712;2023-07-13T03:20:43;99245.34;;;24.52;65.57
54306;BME280;66145;45.188;5.712;2023-07-13T03:23:09;99234.47;;;24.43;65.52
54306;BME280;66145;45.188;5.712;2023-07-13T03:25:34;99249.28;;;24.51;65.28
54306;BME280;66145;45.188;5.712;2023-07-13T03:27:59;99240.06;;;24.47;65.25
54306;BME280;66145;45.188;5.712;2023-07-13T03:30:25;99253.91;;;24.47;65.27
54306;BME280;66145;45.188;5.712;2023-07-13T03:32:50;99249.97;;;24.48;65.34
54306;BME280;66145;45.188;5.712;2023-07-13T03:35:15;99272.66;;;24.54;65.74
54306;BME280;66145;45.188;5.712;2023-07-13T03:37:41;99251.03;;;24.43;65.21
54306;BME280;66145;45.188;5.712;2023-07-13T03:40:08;99253.03;;;24.43;65.42
54306;BME280;66145;45.188;5.712;2023-07-13T03:42:34;99267.47;;;24.52;65.32
54306;BME280;66145;45.188;5.712;2023-07-13T03:45:00;99268.09;;;24.45;65.25
54306;BME280;66145;45.188;5.712;2023-07-13T03:47:25;99255.31;;;24.41;65.36
54306;BME280;66145;45.188;5.712;2023-07-13T03:49:51;99258.09;;;24.41;65.20
54306;BME280;66145;45.188;5.712;2023-07-13T03:52:16;99281.66;;;24.51;65.54
54306;BME280;66145;45.188;5.712;2023-07-13T03:54:41;99273.72;;;24.49;65.42
54306;BME280;66145;45.188;5.712;2023-07-13T03:57:08;99248.72;;;24.29;65.16
54306;BME280;66145;45.188;5.712;2023-07-13T03:59:33;99280.38;;;24.48;65.55
54306;BME280;66145;45.188;5.712;2023-07-13T04:02:00;99272.38;;;24.43;65.51
54306;BME280;66145;45.188;5.712;2023-07-13T04:04:26;99274.88;;;24.48;65.26
54306;BME280;66145;45.188;5.712;2023-07-13T04:06:51;99285.50;;;24.46;65.51
54306;BME280;66145;45.188;5.712;2023-07-13T04:09:19;99267.91;;;24.38;65.44
54306;BME280;66145;45.188;5.712;2023-07-13T04:11:44;99288.34;;;24.50;65.46
54306;BME280;66145;45.188;5.712;2023-07-13T04:14:09;99274.69;;;24.41;65.30
54306;BME280;66145;45.188;5.712;2023-07-13T04:16:35;99290.66;;;24.48;65.56
54306;BME280;66145;45.188;5.712;2023-07-13T04:19:00;99270.91;;;24.33;65.41
54306;BME280;66145;45.188;5.712;2023-07-13T04:21:28;99310.81;;;24.48;65.29
54306;BME280;66145;45.188;5.712;2023-07-13T04:23:54;99303.56;;;24.43;65.10
54306;BME280;66145;45.188;5.712;2023-07-13T04:26:19;99309.19;;;24.47;65.03
54306;BME280;66145;45.188;5.712;2023-07-13T04:28:47;99303.84;;;24.38;65.43
54306;BME280;66145;45.188;5.712;2023-07-13T04:31:13;99302.31;;;24.41;65.22
54306;BME280;66145;45.188;5.712;2023-07-13T04:33:38;99320.63;;;24.45;65.33
54306;BME280;66145;45.188;5.712;2023-07-13T04:36:04;99325.00;;;24.47;65.31
54306;BME280;66145;45.188;5.712;2023-07-13T04:38:31;99332.81;;;24.44;65.43
54306;BME280;66145;45.188;5.712;2023-07-13T04:41:00;99330.75;;;24.41;65.42
54306;BME280;66145;45.188;5.712;2023-07-13T04:43:26;99326.28;;;24.37;65.50
54306;BME280;66145;45.188;5.712;2023-07-13T04:45:53;99332.28;;;24.39;65.26
54306;BME280;66145;45.188;5.712;2023-07-13T04:48:18;99346.31;;;24.46;65.17
54306;BME280;66145;45.188;5.712;2023-07-13T04:50:45;99337.81;;;24.39;65.22
54306;BME280;66145;45.188;5.712;2023-07-13T04:53:10;99337.19;;;24.45;65.16
54306;BME280;66145;45.188;5.712;2023-07-13T04:55:37;99355.31;;;24.43;65.38
54306;BME280;66145;45.188;5.712;2023-07-13T04:58:03;99356.56;;;24.45;65.35
54306;BME280;66145;45.188;5.712;2023-07-13T05:00:29;99353.69;;;24.42;65.23
54306;BME280;66145;45.188;5.712;2023-07-13T05:02:55;99350.47;;;24.40;65.31
54306;BME280;66145;45.188;5.712;2023-07-13T05:05:21;99364.75;;;24.42;65.43
54306;BME280;66145;45.188;5.712;2023-07-13T05:07:46;99346.22;;;24.30;64.89
54306;BME280;66145;45.188;5.712;2023-07-13T05:10:11;99377.41;;;24.43;64.96
54306;BME280;66145;45.188;5.712;2023-07-13T05:12:37;99354.88;;;24.28;64.99
54306;BME280;66145;45.188;5.712;2023-07-13T05:15:03;99374.88;;;24.38;65.03
54306;BME280;66145;45.188;5.712;2023-07-13T05:17:28;99388.00;;;24.41;64.94
54306;BME280;66145;45.188;5.712;2023-07-13T05:19:54;99375.84;;;24.29;65.08
54306;BME280;66145;45.188;5.712;2023-07-13T05:22:19;99393.09;;;24.39;65.04
54306;BME280;66145;45.188;5.712;2023-07-13T05:24:44;99395.94;;;24.42;64.91
54306;BME280;66145;45.188;5.712;2023-07-13T05:27:10;99377.69;;;24.25;65.19
54306;BME280;66145;45.188;5.712;2023-07-13T05:29:36;99398.25;;;24.40;65.25
54306;BME280;66145;45.188;5.712;2023-07-13T05:32:01;99387.59;;;24.26;65.17
54306;BME280;66145;45.188;5.712;2023-07-13T05:34:27;99390.09;;;24.32;64.99
54306;BME280;66145;45.188;5.712;2023-07-13T05:36:52;99406.00;;;24.35;65.05
54306;BME280;66145;45.188;5.712;2023-07-13T05:39:18;99406.91;;;24.39;65.02
54306;BME280;66145;45.188;5.712;2023-07-13T05:41:44;99379.91;;;24.20;65.16
54306;BME280;66145;45.188;5.712;2023-07-13T05:44:09;99411.97;;;24.37;64.83
54306;BME280;66145;45.188;5.712;2023-07-13T05:46:35;99408.41;;;24.36;64.81
54306;BME280;66145;45.188;5.712;2023-07-13T05:49:00;99409.44;;;24.32;65.00
54306;BME280;66145;45.188;5.712;2023-07-13T05:51:26;99391.84;;;24.24;65.33
54306;BME280;66145;45.188;5.712;2023-07-13T05:53:51;99409.44;;;24.32;64.80
54306;BME280;66145;45.188;5.712;2023-07-13T05:56:16;99411.78;;;24.29;65.04
54306;BME280;66145;45.188;5.712;2023-07-13T05:58:42;99396.22;;;24.25;65.13
54306;BME280;66145;45.188;5.712;2023-07-13T06:01:10;99413.03;;;24.32;64.85
54306;BME280;66145;45.188;5.712;2023-07-13T06:03:36;99407.03;;;24.30;65.00
54306;BME280;66145;45.188;5.712;2023-07-13T06:06:04;99414.09;;;24.27;65.08
54306;BME280;66145;45.188;5.712;2023-07-13T06:08:29;99426.03;;;24.32;65.02
54306;BME280;66145;45.188;5.712;2023-07-13T06:10:58;99423.97;;;24.28;64.56
54306;BME280;66145;45.188;5.712;2023-07-13T06:13:26;99436.38;;;24.35;64.64
54306;BME280;66145;45.188;5.712;2023-07-13T06:15:51;99429.63;;;24.32;64.99
54306;BME280;66145;45.188;5.712;2023-07-13T06:18:17;99429.63;;;24.32;64.79
54306;BME280;66145;45.188;5.712;2023-07-13T06:20:42;99435.94;;;24.33;64.74
54306;BME280;66145;45.188;5.712;2023-07-13T06:23:07;99425.81;;;24.24;65.05
54306;BME280;66145;45.188;5.712;2023-07-13T06:25:33;99434.69;;;24.30;65.00
54306;BME280;66145;45.188;5.712;2023-07-13T06:27:58;99419.16;;;24.25;64.79
54306;BME280;66145;45.188;5.712;2023-07-13T06:30:24;99423.53;;;24.26;64.86
54306;BME280;66145;45.188;5.712;2023-07-13T06:32:50;99428.59;;;24.24;64.72
54306;BME280;66145;45.188;5.712;2023-07-13T06:35:15;99428.22;;;24.26;64.89
54306;BME280;66145;45.188;5.712;2023-07-13T06:37:41;99441.25;;;24.25;64.99
54306;BME280;66145;45.188;5.712;2023-07-13T06:40:07;99432.13;;;24.25;64.76
54306;BME280;66145;45.188;5.712;2023-07-13T06:42:32;99432.84;;;24.22;64.93
54306;BME280;66145;45.188;5.712;2023-07-13T06:44:57;99449.09;;;24.23;64.86
54306;BME280;66145;45.188;5.712;2023-07-13T06:47:23;99455.53;;;24.27;64.48
54306;BME280;66145;45.188;5.712;2023-07-13T06:49:48;99459.56;;;24.30;64.80
54306;BME280;66145;45.188;5.712;2023-07-13T06:52:13;99455.88;;;24.26;64.92
54306;BME280;66145;45.188;5.712;2023-07-13T06:54:39;99434.13;;;24.12;65.00
54306;BME280;66145;45.188;5.712;2023-07-13T06:57:04;99461.16;;;24.31;65.06
54306;BME280;66145;45.188;5.712;2023-07-13T06:59:30;99458.75;;;24.29;64.74
54306;BME280;66145;45.188;5.712;2023-07-13T07:01:55;99449.53;;;24.25;64.85
54306;BME280;66145;45.188;5.712;2023-07-13T07:04:20;99443.91;;;24.22;64.84
54306;BME280;66145;45.188;5.712;2023-07-13T07:06:46;99441.47;;;24.20;64.71
54306;BME280;66145;45.188;5.712;2023-07-13T07:09:11;99453.09;;;24.26;64.78
54306;BME280;66145;45.188;5.712;2023-07-13T07:11:36;99443.91;;;24.22;64.74
54306;BME280;66145;45.188;5.712;2023-07-13T07:14:02;99433.41;;;24.15;64.79
54306;BME280;66145;45.188;5.712;2023-07-13T07:16:27;99434.34;;;24.19;64.95
54306;BME280;66145;45.188;5.712;2023-07-13T07:18:52;99452.78;;;24.27;64.88
54306;BME280;66145;45.188;5.712;2023-07-13T07:21:18;99451.94;;;24.27;65.08
54306;BME280;66145;45.188;5.712;2023-07-13T07:23:43;99447.56;;;24.26;64.79
54306;BME280;66145;45.188;5.712;2023-07-13T07:26:09;99437.09;;;24.19;64.72
54306;BME280;66145;45.188;5.712;2023-07-13T07:28:35;99453.09;;;24.26;64.96
54306;BME280;66145;45.188;5.712;2023-07-13T07:31:01;99449.09;;;24.23;64.91
54306;BME280;66145;45.188;5.712;2023-07-13T07:33:26;99468.91;;;24.25;65.02
54306;BME280;66145;45.188;5.712;2023-07-13T07:35:51;99464.16;;;24.26;64.76
54306;BME280;66145;45.188;5.712;2023-07-13T07:38:17;99454.72;;;24.14;65.00
54306;BME280;66145;45.188;5.712;2023-07-13T07:40:43;99466.91;;;24.26;64.79
54306;BME280;66145;45.188;5.712;2023-07-13T07:43:09;99456.81;;;24.18;64.97
54306;BME280;66145;45.188;5.712;2023-07-13T07:45:36;99467.97;;;24.21;65.08
54306;BME280;66145;45.188;5.712;2023-07-13T07:48:03;99467.19;;;24.21;64.82
54306;BME280;66145;45.188;5.712;2023-07-13T07:50:28;99482.25;;;24.23;64.85
54306;BME280;66145;45.188;5.712;2023-07-13T07:52:54;99472.94;;;24.15;64.72
54306;BME280;66145;45.188;5.712;2023-07-13T07:55:24;99476.16;;;24.18;64.78
54306;BME280;66145;45.188;5.712;2023-07-13T07:57:52;99468.91;;;24.13;65.03
54306;BME280;66145;45.188;5.712;2023-07-13T08:00:17;99483.41;;;24.22;64.87
54306;BME280;66145;45.188;5.712;2023-07-13T08:02:43;99461.88;;;24.15;65.06
54306;BME280;66145;45.188;5.712;2023-07-13T08:05:09;99475.91;;;24.23;64.92
54306;BME280;66145;45.188;5.712;2023-07-13T08:07:37;99461.31;;;24.10;64.71
54306;BME280;66145;45.188;5.712;2023-07-13T08:10:04;99471.88;;;24.20;64.77
54306;BME280;66145;45.188;5.712;2023-07-13T08:12:29;99465.56;;;24.20;64.97
54306;BME280;66145;45.188;5.712;2023-07-13T08:14:54;99458.41;;;24.19;65.10
54306;BME280;66145;45.188;5.712;2023-07-13T08:17:22;99465.19;;;24.21;65.00
54306;BME280;66145;45.188;5.712;2023-07-13T08:19:48;99468.31;;;24.20;64.88
54306;BME280;66145;45.188;5.712;2023-07-13T08:22:13;99458.19;;;24.11;64.91
54306;BME280;66145;45.188;5.712;2023-07-13T08:24:39;99462.22;;;24.14;64.97
54306;BME280;66145;45.188;5.712;2023-07-13T08:27:04;99456.34;;;24.15;64.75
54306;BME280;66145;45.188;5.712;2023-07-13T08:29:30;99462.44;;;24.21;64.91
54306;BME280;66145;45.188;5.712;2023-07-13T08:31:57;99461.19;;;24.19;64.77
54306;BME280;66145;45.188;5.712;2023-07-13T08:34:23;99451.19;;;24.14;64.88
54306;BME280;66145;45.188;5.712;2023-07-13T08:36:48;99454.03;;;24.18;65.06
54306;BME280;66145;45.188;5.712;2023-07-13T08:39:13;99451.28;;;24.18;64.68
54306;BME280;66145;45.188;5.712;2023-07-13T08:41:39;99437.22;;;24.10;64.56
54306;BME280;66145;45.188;5.712;2023-07-13T08:44:07;99467.19;;;24.21;64.80
54306;BME280;66145;45.188;5.712;2023-07-13T08:46:40;99450.91;;;24.19;64.93
54306;BME280;66145;45.188;5.712;2023-07-13T08:49:15;99448.06;;;24.15;64.55
54306;BME280;66145;45.188;5.712;2023-07-13T08:51:45;99459.22;;;24.19;65.03
54306;BME280;66145;45.188;5.712;2023-07-13T08:54:18;99437.47;;;24.05;65.05
54306;BME280;66145;45.188;5.712;2023-07-13T08:56:45;99453.59;;;24.15;64.71
54306;BME280;66145;45.188;5.712;2023-07-13T08:59:15;99456.81;;;24.18;64.87
54306;BME280;66145;45.188;5.712;2023-07-13T09:04:39;99459.09;;;24.15;64.79
54306;BME280;66145;45.188;5.712;2023-07-13T09:07:34;99443.34;;;24.04;65.02
54306;BME280;66145;45.188;5.712;2023-07-13T09:10:20;99444.72;;;24.10;64.75
54306;BME280;66145;45.188;5.712;2023-07-13T09:15:46;99451.28;;;24.18;64.86
54306;BME280;66145;45.188;5.712;2023-07-13T09:18:32;99461.50;;;24.17;64.86
54306;BME280;66145;45.188;5.712;2023-07-13T09:21:29;99464.28;;;24.17;64.78
54306;BME280;66145;45.188;5.712;2023-07-13T09:24:01;99464.28;;;24.17;65.08
54306;BME280;66145;45.188;5.712;2023-07-13T09:26:28;99462.22;;;24.14;64.96
54306;BME280;66145;45.188;5.712;2023-07-13T09:29:09;99461.03;;;24.15;65.08
54306;BME280;66145;45.188;5.712;2023-07-13T09:31:44;99451.19;;;24.14;64.76
54306;BME280;66145;45.188;5.712;2023-07-13T09:34:13;99443.44;;;24.07;64.85
54306;BME280;66145;45.188;5.712;2023-07-13T09:36:38;99462.66;;;24.16;64.64
54306;BME280;66145;45.188;5.712;2023-07-13T09:41:43;99468.09;;;24.12;64.50
54306;BME280;66145;45.188;5.712;2023-07-13T09:44:14;99431.09;;;23.92;64.72
54306;BME280;66145;45.188;5.712;2023-07-13T09:46:46;99442.16;;;23.92;64.84
54306;BME280;66145;45.188;5.712;2023-07-13T09:49:12;99451.97;;;24.02;64.69
54306;BME280;66145;45.188;5.712;2023-07-13T09:51:38;99477.06;;;24.09;64.90
54306;BME280;66145;45.188;5.712;2023-07-13T09:54:05;99489.50;;;24.15;64.72
54306;BME280;66145;45.188;5.712;2023-07-13T09:56:31;99481.56;;;24.14;64.80
54306;BME280;66145;45.188;5.712;2023-07-13T09:58:57;99465.22;;;24.09;64.62
54306;BME280;66145;45.188;5.712;2023-07-13T10:01:37;99454.75;;;24.02;64.82
54306;BME280;66145;45.188;5.712;2023-07-13T10:04:13;99471.66;;;24.13;64.83
54306;BME280;66145;45.188;5.712;2023-07-13T10:06:39;99443.31;;;23.91;64.79
54306;BME280;66145;45.188;5.712;2023-07-13T10:09:08;99453.69;;;24.07;64.83
54306;BME280;66145;45.188;5.712;2023-07-13T10:11:36;99455.88;;;24.01;64.97
54306;BME280;66145;45.188;5.712;2023-07-13T10:16:35;99467.97;;;24.09;65.01
54306;BME280;66145;45.188;5.712;2023-07-13T10:19:10;99460.47;;;23.97;64.89
54306;BME280;66145;45.188;5.712;2023-07-13T10:21:39;99472.94;;;24.03;64.91
54306;BME280;66145;45.188;5.712;2023-07-13T10:24:16;99467.41;;;24.03;64.86
54306;BME280;66145;45.188;5.712;2023-07-13T10:26:50;99469.34;;;24.03;64.85
54306;BME280;66145;45.188;5.712;2023-07-13T10:29:17;99481.09;;;24.12;64.68
54306;BME280;66145;45.188;5.712;2023-07-13T10:31:45;99461.59;;;23.96;65.02
54306;BME280;66145;45.188;5.712;2023-07-13T10:34:12;99467.03;;;24.05;64.66
54306;BME280;66145;45.188;5.712;2023-07-13T10:36:46;99481.44;;;24.10;64.84
54306;BME280;66145;45.188;5.712;2023-07-13T10:39:27;99485.34;;;24.09;64.94
54306;BME280;66145;45.188;5.712;2023-07-13T10:42:25;99483.50;;;24.13;65.00
54306;BME280;66145;45.188;5.712;2023-07-13T10:44:52;99489.41;;;24.12;64.77
54306;BME280;66145;45.188;5.712;2023-07-13T10:47:17;99482.25;;;24.11;64.84
54306;BME280;66145;45.188;5.712;2023-07-13T10:49:43;99474.06;;;24.02;64.68
54306;BME280;66145;45.188;5.712;2023-07-13T10:52:47;99478.34;;;24.12;64.74
54306;BME280;66145;45.188;5.712;2023-07-13T11:01:06;99458.19;;;24.11;64.83
54306;BME280;66145;45.188;5.712;2023-07-13T11:03:56;99444.16;;;24.04;64.74
54306;BME280;66145;45.188;5.712;2023-07-13T11:08:58;99436.66;;;24.05;64.70
54306;BME280;66145;45.188;5.712;2023-07-13T11:18:49;99439.09;;;24.06;64.54
54306;BME280;66145;45.188;5.712;2023-07-13T11:21:20;99445.88;;;24.09;64.63
54306;BME280;66145;45.188;5.712;2023-07-13T11:23:53;99446.19;;;24.07;64.60
54306;BME280;66145;45.188;5.712;2023-07-13T11:26:55;99451.03;;;24.10;64.86
54306;BME280;66145;45.188;5.712;2023-07-13T11:31:53;99439.41;;;24.05;64.75
54306;BME280;66145;45.188;5.712;2023-07-13T11:34:27;99434.47;;;24.10;64.75
54306;BME280;66145;45.188;5.712;2023-07-13T11:36:55;99410.06;;;24.00;64.72
54306;BME280;66145;45.188;5.712;2023-07-13T11:39:32;99411.78;;;24.05;64.49
54306;BME280;66145;45.188;5.712;2023-07-13T11:42:04;99403.97;;;24.07;64.72
54306;BME280;66145;45.188;5.712;2023-07-13T11:44:32;99415.81;;;24.07;64.65
54306;BME280;66145;45.188;5.712;2023-07-13T11:46:59;99397.97;;;24.05;64.80
54306;BME280;66145;45.188;5.712;2023-07-13T11:49:30;99404.66;;;24.04;64.57
54306;BME280;66145;45.188;5.712;2023-07-13T11:51:57;99406.72;;;24.07;64.76
54306;BME280;66145;45.188;5.712;2023-07-13T11:54:31;99392.00;;;24.03;64.70
54306;BME280;66145;45.188;5.712;2023-07-13T11:57:41;99399.69;;;24.09;64.59
54306;BME280;66145;45.188;5.712;2023-07-13T11:59:50;99384.84;;;24.02;64.64
54306;BME280;66145;45.188;5.712;2023-07-13T12:02:36;99406.38;;;24.08;64.74
54306;BME280;66145;45.188;5.712;2023-07-13T12:05:05;99374.00;;;23.84;64.45
54306;BME280;66145;45.188;5.712;2023-07-13T12:07:33;99395.31;;;24.08;64.57
54306;BME280;66145;45.188;5.712;2023-07-13T12:12:35;99395.22;;;24.05;64.26
54306;BME280;66145;45.188;5.712;2023-07-13T12:15:06;99393.38;;;24.09;64.46
54306;BME280;66145;45.188;5.712;2023-07-13T12:17:34;99381.84;;;24.07;64.55
54306;BME280;66145;45.188;5.712;2023-07-13T12:20:00;99379.19;;;24.10;64.34
54306;BME280;66145;45.188;5.712;2023-07-13T12:22:27;99370.81;;;24.07;64.33
54306;BME280;66145;45.188;5.712;2023-07-13T12:24:53;99365.75;;;24.09;64.46
54306;BME280;66145;45.188;5.712;2023-07-13T12:27:24;99368.03;;;24.07;64.44
54306;BME280;66145;45.188;5.712;2023-07-13T12:29:52;99364.50;;;24.06;64.33
54306;BME280;66145;45.188;5.712;2023-07-13T12:32:19;99366.06;;;24.07;64.25
54306;BME280;66145;45.188;5.712;2023-07-13T12:35:17;99374.50;;;24.11;64.48
54306;BME280;66145;45.188;5.712;2023-07-13T12:37:45;99374.38;;;24.07;64.43
54306;BME280;66145;45.188;5.712;2023-07-13T12:40:20;99357.13;;;23.98;64.31
54306;BME280;66145;45.188;5.712;2023-07-13T12:42:49;99373.69;;;24.10;64.36
54306;BME280;66145;45.188;5.712;2023-07-13T12:45:25;99375.28;;;24.11;64.35
54306;BME280;66145;45.188;5.712;2023-07-13T12:48:04;99380.81;;;24.11;64.41
54306;BME280;66145;45.188;5.712;2023-07-13T12:50:37;99377.59;;;24.09;64.44
54306;BME280;66145;45.188;5.712;2023-07-13T12:53:05;99356.91;;;24.03;64.22
54306;BME280;66145;45.188;5.712;2023-07-13T12:55:41;99360.56;;;24.07;64.78
54306;BME280;66145;45.188;5.712;2023-07-13T12:58:32;99349.28;;;24.00;64.54
54306;BME280;66145;45.188;5.712;2023-07-13T13:01:02;99358.50;;;24.04;64.32
54306;BME280;66145;45.188;5.712;2023-07-13T13:04:01;99367.34;;;24.10;64.58
54306;BME280;66145;45.188;5.712;2023-07-13T13:06:23;99370.81;;;24.07;64.30
54306;BME280;66145;45.188;5.712;2023-07-13T13:08:51;99360.13;;;24.05;64.25
54306;BME280;66145;45.188;5.712;2023-07-13T13:11:18;99370.91;;;24.10;64.45
54306;BME280;66145;45.188;5.712;2023-07-13T13:13:45;99353.22;;;23.99;64.40
54306;BME280;66145;45.188;5.712;2023-07-13T13:16:33;99358.03;;;24.02;64.20
54306;BME280;66145;45.188;5.712;2023-07-13T13:19:21;99365.75;;;24.09;64.38
54306;BME280;66145;45.188;5.712;2023-07-13T13:21:48;99366.06;;;24.07;64.29
54306;BME280;66145;45.188;5.712;2023-07-13T13:24:19;99358.03;;;24.02;64.54
54306;BME280;66145;45.188;5.712;2023-07-13T13:26:46;99374.03;;;24.09;64.51
54306;BME280;66145;45.188;5.712;2023-07-13T13:29:17;99335.59;;;23.91;64.39
54306;BME280;66145;45.188;5.712;2023-07-13T13:31:43;99358.38;;;24.00;64.54
54306;BME280;66145;45.188;5.712;2023-07-13T13:34:13;99359.75;;;24.07;64.58
54306;BME280;66145;45.188;5.712;2023-07-13T13:36:40;99355.28;;;24.02;64.47